Terminal Aerodrome Forecast
Issued by NWS Brownsville, TX

Home | Current Version | Previous Version | Text Only | Print | Product List | Glossary On
Versions: 1 2 3 4 5 6 7 8 9 10 11 12 13 14 15 16 17 18 19 20 21 22 23 24
000
FTUS44 KBRO 031308 AAA
TAFMFE
TAF AMD
KMFE 031308Z 0313/0412 15008KT P6SM BKN050
      TEMPO 0313/0315 BKN015
     FM031500 16015G22KT P6SM OVC025
     FM031800 16018G25KT P6SM BKN040
     FM040000 14009KT P6SM BKN025
      TEMPO 0403/0406 5SM SHRA
     FM040600 13007KT 4SM BR OVC012 PROB30 0406/0412 -TSRA BKN025CB=

USA.gov is the U.S. government's official web portal to all federal, state and local government web resources and services.